4XCCJ LLBG-LLER
Flight info
| Callsign | 4XCCJ |
|---|---|
| Flight time | 0h 40m |
| Altitude | 24000 |
| Route | TOMAL J10 NURIT |
| Aircraft | GLF6/M-SFGHIRWXY/S |
Departure
| Time | 2026-04-26 10:14 |
|---|---|
| Airport | Ben Gurion International Airport (LLBG) |
Arrival
| Time | 2026-04-26 10:54 |
|---|---|
| Airport | Ramon International Airport (LLER) |
| Time | Latitude | Longitude | Altitude | Speed | Heading |
|---|---|---|---|---|---|
| 2026-04-26 09:38 | 32.00747 | 34.89648 | 150 ft | 0 kts | 300° |
| 2026-04-26 10:02 | 32.00747 | 34.89647 | 151 ft | 0 kts | 300° |
| 2026-04-26 10:02 | 32.00744 | 34.89653 | 154 ft | 2 kts | 300° |
| 2026-04-26 10:03 | 32.00737 | 34.89668 | 155 ft | 2 kts | 301° |
| 2026-04-26 10:03 | 32.00726 | 34.89681 | 154 ft | 2 kts | 334° |
| 2026-04-26 10:03 | 32.00711 | 34.89685 | 153 ft | 2 kts | 5° |
| 2026-04-26 10:03 | 32.00700 | 34.89682 | 151 ft | 0 kts | 30° |
| 2026-04-26 10:04 | 32.00712 | 34.89690 | 151 ft | 4 kts | 32° |
| 2026-04-26 10:04 | 32.00749 | 34.89717 | 151 ft | 6 kts | 31° |
| 2026-04-26 10:04 | 32.00774 | 34.89735 | 152 ft | 1 kts | 31° |
| 2026-04-26 10:04 | 32.00780 | 34.89738 | 151 ft | 0 kts | 30° |
| 2026-04-26 10:08 | 32.00780 | 34.89739 | 151 ft | 0 kts | 30° |
| 2026-04-26 10:08 | 32.00794 | 34.89745 | 150 ft | 3 kts | 18° |
| 2026-04-26 10:08 | 32.00822 | 34.89740 | 150 ft | 3 kts | 328° |
| 2026-04-26 10:09 | 32.00841 | 34.89713 | 149 ft | 4 kts | 301° |
| 2026-04-26 10:09 | 32.00857 | 34.89677 | 149 ft | 6 kts | 297° |
| 2026-04-26 10:09 | 32.00887 | 34.89613 | 148 ft | 11 kts | 300° |
| 2026-04-26 10:09 | 32.00930 | 34.89524 | 147 ft | 12 kts | 299° |
| 2026-04-26 10:10 | 32.00973 | 34.89430 | 145 ft | 13 kts | 298° |
| 2026-04-26 10:10 | 32.01023 | 34.89331 | 143 ft | 14 kts | 314° |
| 2026-04-26 10:10 | 32.01079 | 34.89314 | 143 ft | 5 kts | 27° |
| 2026-04-26 10:10 | 32.01111 | 34.89341 | 143 ft | 5 kts | 39° |
| 2026-04-26 10:11 | 32.01141 | 34.89359 | 143 ft | 4 kts | 25° |
| 2026-04-26 10:11 | 32.01168 | 34.89375 | 144 ft | 3 kts | 27° |
| 2026-04-26 10:11 | 32.01214 | 34.89403 | 144 ft | 15 kts | 28° |
| 2026-04-26 10:11 | 32.01323 | 34.89472 | 145 ft | 17 kts | 29° |
| 2026-04-26 10:12 | 32.01429 | 34.89540 | 146 ft | 17 kts | 28° |
| 2026-04-26 10:12 | 32.01530 | 34.89605 | 146 ft | 16 kts | 28° |
| 2026-04-26 10:12 | 32.01631 | 34.89669 | 146 ft | 16 kts | 28° |
| 2026-04-26 10:12 | 32.01732 | 34.89733 | 146 ft | 16 kts | 29° |
| 2026-04-26 10:13 | 32.01831 | 34.89751 | 146 ft | 15 kts | 316° |
| 2026-04-26 10:13 | 32.01829 | 34.89640 | 146 ft | 14 kts | 259° |
| 2026-04-26 10:13 | 32.01800 | 34.89451 | 145 ft | 40 kts | 260° |
| 2026-04-26 10:13 | 32.01698 | 34.88820 | 136 ft | 120 kts | 259° |
| 2026-04-26 10:14 | 32.01518 | 34.87685 | 727 ft | 148 kts | 253° |
| 2026-04-26 10:14 | 32.00971 | 34.86774 | 1759 ft | 153 kts | 214° |
| 2026-04-26 10:14 | 31.99857 | 34.86604 | 2604 ft | 184 kts | 168° |
| 2026-04-26 10:14 | 31.98861 | 34.87566 | 3585 ft | 207 kts | 123° |
| 2026-04-26 10:15 | 31.98694 | 34.89296 | 4611 ft | 235 kts | 82° |
| 2026-04-26 10:15 | 31.98596 | 34.91046 | 6130 ft | 231 kts | 112° |
| 2026-04-26 10:15 | 31.98027 | 34.92987 | 7104 ft | 264 kts | 124° |
| 2026-04-26 10:15 | 31.96931 | 34.94301 | 9475 ft | 225 kts | 151° |
| 2026-04-26 10:16 | 31.95624 | 34.95229 | 10411 ft | 252 kts | 158° |
| 2026-04-26 10:16 | 31.93967 | 34.96205 | 11346 ft | 265 kts | 160° |
| 2026-04-26 10:16 | 31.92431 | 34.96978 | 12590 ft | 261 kts | 158° |
| 2026-04-26 10:16 | 31.90728 | 34.98065 | 12732 ft | 289 kts | 170° |
| 2026-04-26 10:17 | 31.88805 | 34.97994 | 13870 ft | 277 kts | 202° |
| 2026-04-26 10:17 | 31.86962 | 34.97378 | 15010 ft | 282 kts | 187° |
| 2026-04-26 10:17 | 31.85114 | 34.97898 | 16070 ft | 298 kts | 157° |
| 2026-04-26 10:17 | 31.83627 | 34.99622 | 17119 ft | 316 kts | 126° |
| 2026-04-26 10:18 | 31.82969 | 35.02090 | 18158 ft | 326 kts | 104° |
| 2026-04-26 10:18 | 31.82643 | 35.04672 | 19175 ft | 325 kts | 104° |
| 2026-04-26 10:18 | 31.82342 | 35.07305 | 20109 ft | 326 kts | 104° |
| 2026-04-26 10:18 | 31.82040 | 35.09918 | 20851 ft | 330 kts | 105° |
| 2026-04-26 10:19 | 31.81579 | 35.12728 | 19954 ft | 383 kts | 110° |
| 2026-04-26 10:19 | 31.80762 | 35.15514 | 21577 ft | 336 kts | 120° |
| 2026-04-26 10:19 | 31.79884 | 35.18009 | 21001 ft | 362 kts | 120° |
| 2026-04-26 10:19 | 31.79053 | 35.20866 | 19885 ft | 374 kts | 114° |
| 2026-04-26 10:20 | 31.78450 | 35.23615 | 20937 ft | 321 kts | 110° |
| 2026-04-26 10:20 | 31.78151 | 35.25227 | 21474 ft | 294 kts | 110° |
| 2026-04-26 10:20 | 31.77630 | 35.28178 | 22214 ft | 267 kts | 111° |
| 2026-04-26 10:20 | 31.77280 | 35.30227 | 22513 ft | 242 kts | 112° |
| 2026-04-26 10:21 | 31.76966 | 35.32073 | 22533 ft | 223 kts | 112° |
| 2026-04-26 10:21 | 31.76628 | 35.33859 | 21968 ft | 235 kts | 118° |
| 2026-04-26 10:21 | 31.76030 | 35.35667 | 21358 ft | 242 kts | 121° |
| 2026-04-26 10:21 | 31.75723 | 35.37706 | 20837 ft | 266 kts | 95° |
| 2026-04-26 10:22 | 31.75581 | 35.39726 | 20897 ft | 240 kts | 107° |
| 2026-04-26 10:22 | 31.75304 | 35.41573 | 20891 ft | 220 kts | 111° |
| 2026-04-26 10:22 | 31.75027 | 35.43280 | 20770 ft | 208 kts | 112° |
| 2026-04-26 10:22 | 31.74748 | 35.44929 | 20535 ft | 203 kts | 112° |
| 2026-04-26 10:23 | 31.74470 | 35.46538 | 20120 ft | 210 kts | 113° |
| 2026-04-26 10:23 | 31.74019 | 35.48323 | 19838 ft | 240 kts | 123° |
| 2026-04-26 10:23 | 31.73267 | 35.49802 | 21341 ft | 189 kts | 152° |
| 2026-04-26 10:23 | 31.72315 | 35.50451 | 22149 ft | 159 kts | 189° |
| 2026-04-26 10:24 | 31.71266 | 35.50044 | 22247 ft | 174 kts | 224° |
| 2026-04-26 10:24 | 31.70255 | 35.49062 | 22731 ft | 203 kts | 218° |
| 2026-04-26 10:24 | 31.69019 | 35.48103 | 23423 ft | 221 kts | 229° |
| 2026-04-26 10:24 | 31.68172 | 35.46550 | 24279 ft | 235 kts | 239° |
| 2026-04-26 10:25 | 31.67175 | 35.45029 | 25201 ft | 248 kts | 218° |
| 2026-04-26 10:25 | 31.65561 | 35.44192 | 26165 ft | 263 kts | 204° |
| 2026-04-26 10:25 | 31.63806 | 35.43567 | 27183 ft | 271 kts | 202° |
| 2026-04-26 10:25 | 31.62027 | 35.43015 | 28213 ft | 260 kts | 201° |
| 2026-04-26 10:26 | 31.60429 | 35.42574 | 28930 ft | 218 kts | 203° |
| 2026-04-26 10:26 | 31.59047 | 35.42205 | 29261 ft | 187 kts | 204° |
| 2026-04-26 10:26 | 31.57851 | 35.41888 | 29298 ft | 168 kts | 205° |
| 2026-04-26 10:26 | 31.56750 | 35.41595 | 29156 ft | 161 kts | 204° |
| 2026-04-26 10:27 | 31.55662 | 35.41303 | 28997 ft | 162 kts | 204° |
| 2026-04-26 10:27 | 31.54585 | 35.41020 | 28861 ft | 161 kts | 205° |
| 2026-04-26 10:27 | 31.53473 | 35.40731 | 28706 ft | 162 kts | 204° |
| 2026-04-26 10:27 | 31.52381 | 35.40448 | 28567 ft | 162 kts | 204° |
| 2026-04-26 10:28 | 31.51266 | 35.40161 | 28425 ft | 162 kts | 204° |
| 2026-04-26 10:28 | 31.50172 | 35.39882 | 28294 ft | 162 kts | 203° |
| 2026-04-26 10:28 | 31.49083 | 35.39604 | 28173 ft | 161 kts | 204° |
| 2026-04-26 10:28 | 31.47994 | 35.39327 | 28041 ft | 161 kts | 204° |
| 2026-04-26 10:29 | 31.46903 | 35.39050 | 27911 ft | 161 kts | 204° |
| 2026-04-26 10:29 | 31.45813 | 35.38773 | 27783 ft | 161 kts | 205° |
| 2026-04-26 10:29 | 31.44719 | 35.38496 | 27667 ft | 160 kts | 205° |
| 2026-04-26 10:29 | 31.43618 | 35.38216 | 27539 ft | 160 kts | 204° |
| 2026-04-26 10:30 | 31.42569 | 35.37948 | 27396 ft | 162 kts | 205° |
| 2026-04-26 10:30 | 31.41419 | 35.37607 | 26924 ft | 177 kts | 208° |
| 2026-04-26 10:30 | 31.40247 | 35.36996 | 27076 ft | 193 kts | 215° |
| 2026-04-26 10:30 | 31.38903 | 35.36465 | 27525 ft | 223 kts | 195° |
| 2026-04-26 10:31 | 31.37415 | 35.36311 | 27981 ft | 201 kts | 198° |
| 2026-04-26 10:31 | 31.36119 | 35.36113 | 28143 ft | 174 kts | 201° |
| 2026-04-26 10:31 | 31.34973 | 35.35896 | 28064 ft | 159 kts | 202° |
| 2026-04-26 10:31 | 31.33924 | 35.35674 | 27857 ft | 150 kts | 204° |
| 2026-04-26 10:32 | 31.32899 | 35.35440 | 27488 ft | 151 kts | 206° |
| 2026-04-26 10:32 | 31.31856 | 35.35058 | 26795 ft | 162 kts | 211° |
| 2026-04-26 10:32 | 31.30831 | 35.34643 | 26668 ft | 155 kts | 210° |
| 2026-04-26 10:32 | 31.29792 | 35.34230 | 26575 ft | 158 kts | 209° |
| 2026-04-26 10:33 | 31.28747 | 35.33810 | 26510 ft | 159 kts | 209° |
| 2026-04-26 10:33 | 31.27663 | 35.33472 | 26455 ft | 168 kts | 196° |
| 2026-04-26 10:33 | 31.26470 | 35.33393 | 26422 ft | 173 kts | 198° |
| 2026-04-26 10:33 | 31.25267 | 35.33242 | 26465 ft | 174 kts | 199° |
| 2026-04-26 10:34 | 31.24059 | 35.33044 | 26520 ft | 175 kts | 200° |
| 2026-04-26 10:34 | 31.22844 | 35.32811 | 26590 ft | 176 kts | 201° |
| 2026-04-26 10:34 | 31.21647 | 35.32558 | 26673 ft | 176 kts | 202° |
| 2026-04-26 10:34 | 31.20446 | 35.32289 | 26758 ft | 176 kts | 202° |
| 2026-04-26 10:35 | 31.19231 | 35.32006 | 26847 ft | 176 kts | 203° |
| 2026-04-26 10:35 | 31.18067 | 35.31728 | 26939 ft | 176 kts | 203° |
| 2026-04-26 10:35 | 31.16855 | 35.31433 | 27022 ft | 177 kts | 203° |
| 2026-04-26 10:35 | 31.15664 | 35.31140 | 27116 ft | 177 kts | 204° |
| 2026-04-26 10:36 | 31.14457 | 35.30841 | 27200 ft | 177 kts | 203° |
| 2026-04-26 10:36 | 31.13247 | 35.30540 | 27284 ft | 177 kts | 204° |
| 2026-04-26 10:36 | 31.12033 | 35.30237 | 27372 ft | 177 kts | 204° |
| 2026-04-26 10:36 | 31.10811 | 35.29927 | 27472 ft | 187 kts | 203° |
| 2026-04-26 10:37 | 31.09452 | 35.29574 | 27779 ft | 211 kts | 202° |
| 2026-04-26 10:37 | 31.07965 | 35.29200 | 28277 ft | 229 kts | 202° |
| 2026-04-26 10:37 | 31.06379 | 35.28772 | 28898 ft | 240 kts | 206° |
| 2026-04-26 10:37 | 31.04901 | 35.27955 | 29696 ft | 235 kts | 225° |
| 2026-04-26 10:38 | 31.04037 | 35.26369 | 30181 ft | 247 kts | 260° |
| 2026-04-26 10:38 | 31.03766 | 35.24392 | 30758 ft | 252 kts | 243° |
| 2026-04-26 10:38 | 31.02546 | 35.22917 | 31539 ft | 265 kts | 214° |
| 2026-04-26 10:38 | 31.00716 | 35.22505 | 32278 ft | 295 kts | 186° |
| 2026-04-26 10:39 | 30.98685 | 35.23124 | 32981 ft | 313 kts | 174° |
| 2026-04-26 10:39 | 30.96622 | 35.24036 | 33683 ft | 314 kts | 173° |
| 2026-04-26 10:39 | 30.94605 | 35.24972 | 34395 ft | 314 kts | 172° |
| 2026-04-26 10:39 | 30.92578 | 35.25916 | 34678 ft | 327 kts | 175° |
| 2026-04-26 10:40 | 30.90309 | 35.26659 | 33355 ft | 349 kts | 178° |
| 2026-04-26 10:40 | 30.88071 | 35.27314 | 34204 ft | 321 kts | 179° |
| 2026-04-26 10:40 | 30.86004 | 35.27969 | 34727 ft | 298 kts | 179° |
| 2026-04-26 10:40 | 30.84092 | 35.28619 | 35285 ft | 280 kts | 180° |
| 2026-04-26 10:41 | 30.82292 | 35.29266 | 35686 ft | 268 kts | 180° |
| 2026-04-26 10:41 | 30.80554 | 35.29921 | 35988 ft | 258 kts | 180° |
| 2026-04-26 10:41 | 30.78819 | 35.30403 | 35352 ft | 264 kts | 195° |
| 2026-04-26 10:41 | 30.76938 | 35.30270 | 33767 ft | 305 kts | 200° |
| 2026-04-26 10:42 | 30.74783 | 35.29860 | 31965 ft | 345 kts | 204° |
| 2026-04-26 10:42 | 30.72451 | 35.28981 | 30051 ft | 382 kts | 205° |
| 2026-04-26 10:42 | 30.69898 | 35.28257 | 28874 ft | 393 kts | 193° |
| 2026-04-26 10:42 | 30.67278 | 35.27757 | 27140 ft | 401 kts | 196° |
| 2026-04-26 10:43 | 30.64578 | 35.26979 | 24543 ft | 420 kts | 199° |
| 2026-04-26 10:43 | 30.61883 | 35.25914 | 22757 ft | 419 kts | 206° |
| 2026-04-26 10:43 | 30.59168 | 35.24625 | 20913 ft | 428 kts | 206° |
| 2026-04-26 10:43 | 30.56452 | 35.23290 | 19893 ft | 416 kts | 207° |
| 2026-04-26 10:44 | 30.53869 | 35.22026 | 19761 ft | 387 kts | 207° |
| 2026-04-26 10:44 | 30.51462 | 35.20956 | 19714 ft | 361 kts | 200° |
| 2026-04-26 10:44 | 30.49112 | 35.20176 | 19013 ft | 357 kts | 202° |
| 2026-04-26 10:44 | 30.46674 | 35.19282 | 17369 ft | 384 kts | 200° |
| 2026-04-26 10:45 | 30.44058 | 35.18505 | 16270 ft | 401 kts | 197° |
| 2026-04-26 10:45 | 30.41263 | 35.17850 | 15778 ft | 413 kts | 193° |
| 2026-04-26 10:45 | 30.38356 | 35.17543 | 15306 ft | 422 kts | 189° |
| 2026-04-26 10:45 | 30.35436 | 35.17214 | 15186 ft | 420 kts | 188° |
| 2026-04-26 10:46 | 30.32538 | 35.16920 | 14762 ft | 422 kts | 187° |
| 2026-04-26 10:46 | 30.29698 | 35.16602 | 14728 ft | 383 kts | 194° |
| 2026-04-26 10:46 | 30.27601 | 35.15397 | 16085 ft | 306 kts | 220° |
| 2026-04-26 10:46 | 30.25940 | 35.13944 | 15212 ft | 314 kts | 218° |
| 2026-04-26 10:47 | 30.24143 | 35.12448 | 13343 ft | 346 kts | 216° |
| 2026-04-26 10:47 | 30.22118 | 35.10871 | 11579 ft | 365 kts | 212° |
| 2026-04-26 10:47 | 30.19910 | 35.09412 | 10253 ft | 370 kts | 208° |
| 2026-04-26 10:47 | 30.17603 | 35.08400 | 9131 ft | 370 kts | 193° |
| 2026-04-26 10:48 | 30.15040 | 35.07988 | 7513 ft | 383 kts | 187° |
| 2026-04-26 10:48 | 30.12408 | 35.07746 | 5984 ft | 389 kts | 186° |
| 2026-04-26 10:48 | 30.09756 | 35.07676 | 5231 ft | 372 kts | 181° |
| 2026-04-26 10:48 | 30.07237 | 35.07628 | 4913 ft | 346 kts | 182° |
| 2026-04-26 10:49 | 30.04963 | 35.07442 | 4989 ft | 310 kts | 188° |
| 2026-04-26 10:49 | 30.02848 | 35.07240 | 4917 ft | 299 kts | 185° |
| 2026-04-26 10:49 | 30.00795 | 35.07142 | 4822 ft | 290 kts | 184° |
| 2026-04-26 10:49 | 29.98961 | 35.06774 | 5556 ft | 245 kts | 189° |
| 2026-04-26 10:50 | 29.97370 | 35.06543 | 6289 ft | 233 kts | 188° |
| 2026-04-26 10:50 | 29.96300 | 35.06393 | 6799 ft | 237 kts | 188° |
| 2026-04-26 10:50 | 29.94093 | 35.06084 | 7867 ft | 241 kts | 188° |
| 2026-04-26 10:50 | 29.92443 | 35.05859 | 8683 ft | 243 kts | 188° |
| 2026-04-26 10:51 | 29.90775 | 35.05632 | 9514 ft | 243 kts | 189° |
| 2026-04-26 10:51 | 29.87028 | 35.05369 | 8054 ft | 320 kts | 183° |
| 2026-04-26 10:51 | 29.84800 | 35.05139 | 6524 ft | 315 kts | 189° |
| 2026-04-26 10:52 | 29.82830 | 35.04715 | 5553 ft | 272 kts | 195° |
| 2026-04-26 10:52 | 29.81120 | 35.04149 | 4578 ft | 245 kts | 199° |
| 2026-04-26 10:52 | 29.79607 | 35.03569 | 3756 ft | 219 kts | 201° |
| 2026-04-26 10:52 | 29.78237 | 35.03085 | 2961 ft | 200 kts | 198° |
| 2026-04-26 10:53 | 29.76990 | 35.02683 | 2202 ft | 184 kts | 196° |
| 2026-04-26 10:53 | 29.75804 | 35.02303 | 1354 ft | 176 kts | 195° |
| 2026-04-26 10:53 | 29.74660 | 35.01964 | 531 ft | 169 kts | 193° |
| 2026-04-26 10:54 | 29.72891 | 35.01467 | 297 ft | 90 kts | 194° |
| 2026-04-26 10:54 | 29.72328 | 35.01313 | 292 ft | 81 kts | 193° |
| 2026-04-26 10:54 | 29.71907 | 35.01186 | 285 ft | 47 kts | 194° |
| 2026-04-26 10:54 | 29.71611 | 35.01099 | 281 ft | 41 kts | 194° |
| 2026-04-26 10:55 | 29.71344 | 35.01020 | 274 ft | 38 kts | 196° |
| 2026-04-26 10:55 | 29.71190 | 35.00967 | 270 ft | 13 kts | 213° |
| 2026-04-26 10:55 | 29.71115 | 35.00878 | 272 ft | 18 kts | 244° |
| 2026-04-26 10:55 | 29.71110 | 35.00791 | 274 ft | 15 kts | 291° |
| 2026-04-26 10:56 | 29.71221 | 35.00767 | 280 ft | 18 kts | 20° |
| 2026-04-26 10:56 | 29.71403 | 35.00819 | 285 ft | 36 kts | 13° |
| 2026-04-26 10:56 | 29.71668 | 35.00893 | 292 ft | 38 kts | 13° |
| 2026-04-26 10:56 | 29.71919 | 35.00962 | 296 ft | 35 kts | 13° |
| 2026-04-26 10:57 | 29.72131 | 35.01022 | 299 ft | 20 kts | 15° |
| 2026-04-26 10:57 | 29.72215 | 35.01011 | 302 ft | 12 kts | 289° |
| 2026-04-26 10:57 | 29.72229 | 35.00934 | 306 ft | 6 kts | 282° |
| 2026-04-26 10:57 | 29.72234 | 35.00906 | 308 ft | 1 kts | 282° |
| 2026-04-26 10:58 | 29.72241 | 35.00867 | 310 ft | 8 kts | 283° |
| 2026-04-26 10:58 | 29.72234 | 35.00829 | 312 ft | 3 kts | 224° |
| 2026-04-26 10:58 | 29.72204 | 35.00831 | 311 ft | 4 kts | 133° |
| 2026-04-26 10:58 | 29.72199 | 35.00859 | 310 ft | 4 kts | 99° |
| 2026-04-26 10:59 | 29.72196 | 35.00872 | 309 ft | 0 kts | 107° |